Time;durP1;ratioP1;P1;durP2;ratioP2;P2;SDS_P1;SDS_P2;PMS_P1;PMS_P2;Temp;Humidity;BMP_temperature;BMP_pressure;BME280_temperature;BME280_humidity;BME280_pressure;Samples;Min_cycle;Max_cycle;Signal;HPM_P1;HPM_P2
2024/01/15 00:01:29;;;;;;;12.38;1.60;;;2.70;99.90;;;;;;6239783;23;20019;-81
2024/01/15 00:03:55;;;;;;;12.80;2.03;;;2.70;99.90;;;;;;6237810;23;20421;-81
2024/01/15 00:06:20;;;;;;;7.27;1.60;;;2.80;99.90;;;;;;6238025;23;20044;-80
2024/01/15 00:08:46;;;;;;;7.38;1.30;;;2.60;99.90;;;;;;6238117;23;20247;-81
2024/01/15 00:11:11;;;;;;;6.97;1.00;;;2.60;99.90;;;;;;6237425;23;20058;-81
2024/01/15 00:13:37;;;;;;;5.32;0.82;;;2.50;99.90;;;;;;6236557;23;20019;-81
2024/01/15 00:16:04;;;;;;;8.33;1.00;;;2.20;99.90;;;;;;6237394;23;20070;-81
2024/01/15 00:18:30;;;;;;;6.40;1.17;;;2.40;99.90;;;;;;6236580;23;20272;-80
2024/01/15 00:20:56;;;;;;;4.33;0.83;;;2.10;99.90;;;;;;6238124;23;20476;-81
2024/01/15 00:23:22;;;;;;;4.03;0.85;;;2.10;99.90;;;;;;6238910;23;20020;-80
2024/01/15 00:25:47;;;;;;;5.88;0.88;;;2.10;99.90;;;;;;6237888;23;20016;-81
2024/01/15 00:28:13;;;;;;;6.40;0.90;;;2.40;99.90;;;;;;6237717;23;20093;-81
2024/01/15 00:30:39;;;;;;;5.57;0.60;;;2.40;99.90;;;;;;6237300;23;20611;-81
2024/01/15 00:33:04;;;;;;;6.83;0.90;;;2.00;99.90;;;;;;6238201;23;20103;-81
2024/01/15 00:35:30;;;;;;;7.53;0.73;;;2.20;99.90;;;;;;6237519;23;20231;-81
2024/01/15 00:37:56;;;;;;;4.45;0.60;;;2.40;99.90;;;;;;6236799;23;20020;-81
2024/01/15 00:40:21;;;;;;;8.20;0.97;;;2.50;99.90;;;;;;6236938;23;20008;-81
2024/01/15 00:42:47;;;;;;;4.22;0.68;;;2.10;99.90;;;;;;6236842;23;20294;-81
2024/01/15 00:45:13;;;;;;;4.17;0.93;;;2.10;99.90;;;;;;6237749;23;20319;-81
2024/01/15 00:47:38;;;;;;;3.95;0.77;;;2.40;99.90;;;;;;6239968;23;20243;-81
2024/01/15 00:50:05;;;;;;;5.17;1.30;;;2.40;99.90;;;;;;6237783;23;20083;-81
2024/01/15 00:52:30;;;;;;;3.85;0.55;;;2.00;99.90;;;;;;6239369;22;20046;-81
2024/01/15 00:54:56;;;;;;;3.83;0.83;;;2.00;99.90;;;;;;6239488;23;20756;-81
2024/01/15 00:57:21;;;;;;;6.63;1.25;;;1.90;99.90;;;;;;6235709;23;20766;-81
2024/01/15 00:59:48;;;;;;;9.80;1.17;;;2.00;99.90;;;;;;6239783;23;20020;-81
2024/01/15 01:02:14;;;;;;;10.90;1.95;;;2.40;99.90;;;;;;6236654;23;20013;-81
2024/01/15 01:04:40;;;;;;;5.93;1.02;;;2.00;99.90;;;;;;6240384;23;20161;-81
2024/01/15 01:07:06;;;;;;;;;;;1.90;99.90;;;;;;6240130;23;20059;-81
2024/01/15 01:09:31;;;;;;;12.45;1.80;;;2.30;99.90;;;;;;6236001;23;20009;-81
2024/01/15 01:11:57;;;;;;;16.35;2.20;;;2.10;99.90;;;;;;6236798;23;20026;-81
2024/01/15 01:14:22;;;;;;;11.55;1.92;;;2.70;99.90;;;;;;6237169;23;20008;-81
2024/01/15 01:16:48;;;;;;;16.02;2.50;;;2.20;99.90;;;;;;6237701;23;20012;-80
2024/01/15 01:19:14;;;;;;;17.87;2.87;;;2.20;99.90;;;;;;6237657;23;20463;-81
2024/01/15 01:21:39;;;;;;;15.13;1.75;;;2.60;99.90;;;;;;6235936;23;20024;-81
2024/01/15 01:24:05;;;;;;;12.40;2.23;;;2.30;99.90;;;;;;6237458;23;20008;-81
2024/01/15 01:26:31;;;;;;;12.48;2.30;;;2.70;99.90;;;;;;6236884;23;20258;-81
2024/01/15 01:28:57;;;;;;;9.55;1.40;;;2.80;99.90;;;;;;6236728;23;20342;-81
2024/01/15 01:31:23;;;;;;;11.45;1.25;;;2.50;99.90;;;;;;6237038;23;20090;-81
2024/01/15 01:33:49;;;;;;;8.80;1.52;;;2.80;99.90;;;;;;6237150;23;20024;-81
2024/01/15 01:36:15;;;;;;;9.63;1.60;;;2.50;99.90;;;;;;6237748;23;20063;-81
2024/01/15 01:38:41;;;;;;;10.43;1.80;;;2.80;99.90;;;;;;6237307;23;20092;-81
2024/01/15 01:41:07;;;;;;;10.82;1.95;;;2.50;99.90;;;;;;6212020;23;20028;-81
2024/01/15 01:43:33;;;;;;;10.70;1.40;;;2.80;99.90;;;;;;6235927;23;20016;-81
2024/01/15 01:46:00;;;;;;;16.33;2.08;;;2.50;99.90;;;;;;6238860;23;20023;-81
2024/01/15 01:48:27;;;;;;;10.30;1.52;;;2.90;99.90;;;;;;6237068;23;20065;-81
2024/01/15 01:50:54;;;;;;;;;;;2.60;99.90;;;;;;6237620;23;20008;-80
2024/01/15 01:53:20;;;;;;;10.82;1.27;;;2.70;99.90;;;;;;6237886;23;19923;-81
2024/01/15 01:55:47;;;;;;;10.63;1.63;;;2.70;99.90;;;;;;6211563;23;20326;-81
2024/01/15 01:58:14;;;;;;;11.82;1.80;;;2.80;99.90;;;;;;6236074;23;20503;-80
2024/01/15 02:00:39;;;;;;;6.65;1.35;;;2.70;99.90;;;;;;6238946;23;20016;-81
2024/01/15 02:03:05;;;;;;;11.60;1.35;;;2.70;99.90;;;;;;6240667;23;20023;-81
2024/01/15 02:05:31;;;;;;;10.82;1.42;;;2.80;99.90;;;;;;6238911;23;20326;-81
2024/01/15 02:07:57;;;;;;;9.27;1.38;;;2.70;99.90;;;;;;6238583;23;20449;-80
2024/01/15 02:10:22;;;;;;;15.73;2.73;;;3.00;99.90;;;;;;6237862;23;20034;-81
2024/01/15 02:12:48;;;;;;;11.60;1.83;;;2.80;99.90;;;;;;6239044;23;20023;-81
2024/01/15 02:15:14;;;;;;;12.38;2.50;;;2.90;99.90;;;;;;6239109;23;20330;-81
2024/01/15 02:18:00;;;;;;;12.70;1.77;;;2.90;99.90;;;;;;6239049;23;20035;-81
2024/01/15 02:20:26;;;;;;;9.68;1.40;;;2.80;99.90;;;;;;6239405;23;20048;-81
2024/01/15 02:22:52;;;;;;;12.10;1.50;;;2.90;99.90;;;;;;6240004;23;20070;-81
2024/01/15 02:25:18;;;;;;;12.15;1.60;;;2.70;99.90;;;;;;6239629;23;20019;-81
2024/01/15 02:27:44;;;;;;;8.40;2.53;;;2.70;99.90;;;;;;6238331;23;20507;-81
2024/01/15 02:30:12;;;;;;;12.85;1.55;;;2.90;99.90;;;;;;6239032;23;20012;-81
2024/01/15 02:32:38;;;;;;;10.98;1.35;;;2.70;99.90;;;;;;6213106;23;20023;-81
2024/01/15 02:35:04;;;;;;;7.95;1.50;;;2.50;99.90;;;;;;6238209;23;20016;-81
2024/01/15 02:37:30;;;;;;;11.40;2.50;;;2.60;99.90;;;;;;6239956;23;20027;-81
2024/01/15 02:39:55;;;;;;;10.60;1.97;;;2.40;99.90;;;;;;6214093;23;20013;-81
2024/01/15 02:42:21;;;;;;;10.35;1.55;;;2.40;99.90;;;;;;6238461;23;20328;-81
2024/01/15 02:44:48;;;;;;;11.27;1.50;;;2.60;99.90;;;;;;6238530;23;20016;-81
2024/01/15 02:47:14;;;;;;;10.50;2.08;;;2.50;99.90;;;;;;6239101;23;20708;-81
2024/01/15 02:49:39;;;;;;;9.43;1.63;;;2.60;99.90;;;;;;6238904;23;20094;-80
2024/01/15 02:52:05;;;;;;;12.85;1.80;;;2.60;99.90;;;;;;6239584;22;20525;-81
2024/01/15 02:54:31;;;;;;;16.08;2.45;;;2.60;99.90;;;;;;6238195;23;20024;-80
2024/01/15 02:56:56;;;;;;;10.03;1.77;;;2.40;99.90;;;;;;6238055;23;20016;-81
2024/01/15 02:59:22;;;;;;;15.23;3.27;;;2.60;99.90;;;;;;6238778;23;20259;-81
2024/01/15 03:01:47;;;;;;;14.07;2.08;;;2.40;99.90;;;;;;6237912;23;20019;-80
2024/01/15 03:04:13;;;;;;;9.53;2.70;;;2.70;99.90;;;;;;6238149;23;20020;-80
2024/01/15 03:06:39;;;;;;;10.98;1.90;;;2.60;99.90;;;;;;6210303;23;20248;-80
2024/01/15 03:09:05;;;;;;;10.13;2.23;;;2.50;99.90;;;;;;6238211;23;20016;-81
2024/01/15 03:11:38;;;;;;;10.02;1.67;;;2.70;99.90;;;;;;6238105;23;20239;-80
2024/01/15 03:14:04;;;;;;;10.93;1.90;;;2.70;99.90;;;;;;6238251;23;20012;-81
2024/01/15 03:16:29;;;;;;;11.25;2.42;;;2.80;99.90;;;;;;6240416;23;20069;-81
2024/01/15 03:18:55;;;;;;;11.73;1.85;;;2.90;99.90;;;;;;6238678;23;20341;-81
2024/01/15 03:21:20;;;;;;;12.20;1.87;;;2.50;99.90;;;;;;6239647;23;20016;-81
2024/01/15 03:23:46;;;;;;;15.32;1.95;;;2.90;99.90;;;;;;6238314;23;20020;-81
2024/01/15 03:26:12;;;;;;;15.30;2.70;;;2.70;99.90;;;;;;6237954;23;20020;-80
2024/01/15 03:28:37;;;;;;;10.48;2.28;;;2.90;99.90;;;;;;6238501;23;20016;-80
2024/01/15 03:31:03;;;;;;;18.02;3.08;;;2.90;99.90;;;;;;6238670;23;20337;-80
2024/01/15 03:33:28;;;;;;;14.20;2.85;;;2.80;99.90;;;;;;6246962;22;20014;-80
2024/01/15 03:35:54;;;;;;;16.95;2.85;;;2.90;99.90;;;;;;6299211;22;20084;-80
2024/01/15 03:38:20;;;;;;;16.92;2.30;;;2.90;99.90;;;;;;6299977;22;20016;-81
2024/01/15 03:40:46;;;;;;;11.53;2.50;;;2.80;99.90;;;;;;6299880;22;20071;-81
2024/01/15 03:43:12;;;;;;;;;;;2.60;99.90;;;;;;6301547;22;20261;-80
2024/01/15 03:45:37;;;;;;;11.30;2.13;;;2.80;99.90;;;;;;6298964;22;19919;-81
2024/01/15 03:48:03;;;;;;;14.77;2.73;;;2.70;99.90;;;;;;6301300;22;20023;-81
2024/01/15 03:50:29;;;;;;;15.80;2.80;;;2.50;99.90;;;;;;6299046;22;20254;-81
2024/01/15 03:52:54;;;;;;;17.33;2.07;;;2.70;99.90;;;;;;6300039;22;20106;-81
2024/01/15 03:55:20;;;;;;;15.95;2.25;;;2.80;99.90;;;;;;6300333;22;20045;-80
2024/01/15 03:57:45;;;;;;;14.60;1.77;;;2.70;99.90;;;;;;6297787;22;20023;-81
2024/01/15 04:00:12;;;;;;;15.13;2.23;;;3.00;99.90;;;;;;6299240;22;20343;-81
2024/01/15 04:02:37;;;;;;;8.80;1.80;;;3.00;99.90;;;;;;6299219;22;20756;-81
2024/01/15 04:05:03;;;;;;;11.23;2.00;;;3.00;99.90;;;;;;6299959;22;20023;-81
2024/01/15 04:07:29;;;;;;;9.38;2.22;;;3.30;99.90;;;;;;6300509;22;20234;-81
2024/01/15 04:09:54;;;;;;;10.20;1.87;;;3.20;99.90;;;;;;6301490;22;20019;-81
2024/01/15 04:12:20;;;;;;;5.23;1.10;;;3.30;99.90;;;;;;6299229;22;20277;-81
2024/01/15 04:14:45;;;;;;;8.63;1.40;;;3.30;99.90;;;;;;6299363;22;20325;-81
2024/01/15 04:17:11;;;;;;;11.53;1.87;;;3.30;99.90;;;;;;6300696;22;20230;-80
2024/01/15 04:19:36;;;;;;;10.07;1.63;;;3.30;99.90;;;;;;6298144;22;20094;-81
2024/01/15 04:22:02;;;;;;;8.83;1.47;;;3.30;99.90;;;;;;6299366;22;20242;-80
2024/01/15 04:24:27;;;;;;;9.45;2.03;;;3.00;99.90;;;;;;6299622;22;20046;-81
2024/01/15 04:26:53;;;;;;;8.83;2.30;;;2.90;99.90;;;;;;6299747;22;20019;-80
2024/01/15 04:29:19;;;;;;;11.18;1.73;;;2.80;99.90;;;;;;6301081;22;20086;-81
2024/01/15 04:31:44;;;;;;;12.00;1.70;;;2.80;99.90;;;;;;6301574;22;20038;-81
2024/01/15 04:34:10;;;;;;;10.90;1.93;;;2.60;99.90;;;;;;6300605;22;20250;-81
2024/01/15 04:39:01;;;;;;;6.07;1.33;;;2.50;99.90;;;;;;6299386;22;20023;-81
2024/01/15 04:41:27;;;;;;;3.33;1.00;;;2.50;99.90;;;;;;6300998;22;20438;-81
2024/01/15 04:43:52;;;;;;;4.55;1.17;;;2.60;99.90;;;;;;6298883;22;20316;-82
2024/01/15 04:46:19;;;;;;;8.63;1.10;;;2.60;99.90;;;;;;6299149;22;20011;-81
2024/01/15 04:48:44;;;;;;;;;;;2.50;99.90;;;;;;6300402;22;20229;-83
2024/01/15 04:51:10;;;;;;;6.70;1.17;;;2.50;99.90;;;;;;6298890;22;19953;-82
2024/01/15 04:53:36;;;;;;;8.15;1.15;;;2.30;99.90;;;;;;6300920;22;20552;-82
2024/01/15 04:56:01;;;;;;;5.90;1.13;;;2.20;99.90;;;;;;6299448;22;20095;-82
2024/01/15 04:58:27;;;;;;;4.57;0.73;;;2.30;99.90;;;;;;6298808;22;20019;-81
2024/01/15 05:00:54;;;;;;;5.80;0.70;;;2.30;99.90;;;;;;6298160;22;20015;-78
2024/01/15 05:03:20;;;;;;;4.55;0.80;;;2.20;99.90;;;;;;6298808;22;20019;-79
2024/01/15 05:05:45;;;;;;;5.95;0.90;;;2.10;99.90;;;;;;6297380;22;20051;-81
2024/01/15 05:08:11;;;;;;;6.13;0.68;;;2.00;99.90;;;;;;6299372;22;20025;-81
2024/01/15 05:10:37;;;;;;;4.20;1.07;;;2.10;99.90;;;;;;6298864;22;20460;-81
2024/01/15 05:13:02;;;;;;;3.92;0.85;;;2.00;99.90;;;;;;6298275;22;20238;-81
2024/01/15 05:15:28;;;;;;;2.63;0.73;;;1.90;99.90;;;;;;6297179;22;20019;-81
2024/01/15 05:17:53;;;;;;;5.73;1.03;;;1.90;99.90;;;;;;6299637;22;20022;-79
2024/01/15 05:20:19;;;;;;;5.80;0.90;;;1.90;99.90;;;;;;6300699;22;20626;-79
2024/01/15 05:22:45;;;;;;;5.13;0.83;;;1.70;99.90;;;;;;6300150;22;20705;-79
2024/01/15 05:25:10;;;;;;;8.03;0.97;;;1.90;99.90;;;;;;6300703;22;20030;-82
2024/01/15 05:27:36;;;;;;;6.72;1.08;;;1.80;99.90;;;;;;6297742;22;20379;-82
2024/01/15 05:30:02;;;;;;;7.63;0.97;;;1.60;99.90;;;;;;6273182;22;20019;-79
2024/01/15 05:32:27;;;;;;;7.00;1.00;;;1.80;99.90;;;;;;6294221;22;20463;-81
2024/01/15 05:34:53;;;;;;;7.80;1.37;;;1.70;99.90;;;;;;6296706;22;20427;-81
2024/01/15 05:37:18;;;;;;;12.57;1.90;;;1.80;99.90;;;;;;6299588;22;20023;-80
2024/01/15 05:39:44;;;;;;;8.80;1.42;;;1.60;99.90;;;;;;6293311;22;20859;-80
2024/01/15 05:42:09;;;;;;;11.95;2.47;;;1.90;99.90;;;;;;6297250;22;20388;-80
2024/01/15 05:44:35;;;;;;;8.37;1.50;;;1.60;99.90;;;;;;6301258;22;20285;-80
2024/01/15 05:47:01;;;;;;;8.95;1.40;;;1.80;99.90;;;;;;6298388;22;20023;-80
2024/01/15 05:49:26;;;;;;;10.90;1.70;;;1.60;99.90;;;;;;6300272;22;20098;-80
2024/01/15 05:51:52;;;;;;;13.10;1.52;;;1.60;99.90;;;;;;6272633;22;20023;-80
2024/01/15 05:54:20;;;;;;;15.83;2.10;;;1.80;99.90;;;;;;6302153;22;20342;-80
2024/01/15 05:56:45;;;;;;;9.45;1.70;;;1.70;99.90;;;;;;6298412;22;20015;-81
2024/01/15 05:59:11;;;;;;;13.75;2.78;;;1.60;99.90;;;;;;6298923;22;20033;-80
2024/01/15 06:01:37;;;;;;;15.20;2.30;;;1.90;99.90;;;;;;6301056;22;20014;-81
2024/01/15 06:04:02;;;;;;;10.20;1.77;;;1.90;99.90;;;;;;6299472;22;20277;-81
2024/01/15 06:06:28;;;;;;;8.77;1.70;;;2.00;99.90;;;;;;6301483;22;20054;-81
2024/01/15 06:08:53;;;;;;;9.50;1.63;;;1.90;99.90;;;;;;6273953;22;20347;-81
2024/01/15 06:11:19;;;;;;;7.07;1.00;;;1.90;99.90;;;;;;6299057;22;20238;-81
2024/01/15 06:13:45;;;;;;;15.33;2.47;;;1.70;99.90;;;;;;6296185;22;20431;-81
2024/01/15 06:16:20;;;;;;;13.98;2.70;;;1.80;99.90;;;;;;6297356;22;20317;-81
2024/01/15 06:18:45;;;;;;;12.25;1.83;;;1.80;99.90;;;;;;6297615;22;20034;-81
2024/01/15 06:21:12;;;;;;;14.45;1.70;;;1.80;99.90;;;;;;6298436;22;20015;-81
2024/01/15 06:23:38;;;;;;;11.50;2.55;;;2.10;99.90;;;;;;6272784;22;20011;-81
2024/01/15 06:26:04;;;;;;;15.82;2.05;;;1.80;99.90;;;;;;6298643;22;20519;-81
2024/01/15 06:28:30;;;;;;;11.13;2.72;;;1.70;99.90;;;;;;6300194;22;20018;-81
2024/01/15 06:30:56;;;;;;;16.42;2.72;;;1.80;99.90;;;;;;6299963;22;20015;-83
2024/01/15 06:33:22;;;;;;;10.45;1.73;;;1.70;99.90;;;;;;6298641;22;20019;-82
2024/01/15 06:35:48;;;;;;;15.73;2.00;;;1.70;99.90;;;;;;6274379;22;20019;-83
2024/01/15 06:38:13;;;;;;;13.48;1.90;;;1.90;99.90;;;;;;6299466;22;20250;-82
2024/01/15 06:40:41;;;;;;;13.17;2.80;;;1.70;99.90;;;;;;6298688;22;20451;-83
2024/01/15 06:43:07;;;;;;;11.93;2.50;;;1.60;99.90;;;;;;6299879;22;20061;-82
2024/01/15 06:45:32;;;;;;;15.02;2.35;;;1.90;99.90;;;;;;6299179;22;20019;-82
2024/01/15 06:47:58;;;;;;;15.15;2.08;;;1.80;99.90;;;;;;6300927;22;20033;-83
2024/01/15 06:50:24;;;;;;;12.33;2.33;;;1.80;99.90;;;;;;6299790;22;20015;-83
2024/01/15 06:52:49;;;;;;;13.02;2.15;;;1.60;99.90;;;;;;6300928;22;20276;-83
2024/01/15 06:55:15;;;;;;;15.80;2.15;;;1.70;99.90;;;;;;6300954;22;20136;-83
2024/01/15 06:57:41;;;;;;;11.05;2.30;;;1.90;99.90;;;;;;6298914;22;20034;-83
2024/01/15 07:00:08;;;;;;;9.93;1.75;;;1.70;99.90;;;;;;6300480;22;20019;-82
2024/01/15 07:02:33;;;;;;;12.30;2.20;;;1.70;99.90;;;;;;6301947;22;20019;-83
2024/01/15 07:04:59;;;;;;;13.30;2.07;;;1.70;99.90;;;;;;6300303;22;20090;-83
2024/01/15 07:07:28;;;;;;;14.63;2.37;;;1.60;99.90;;;;;;6299868;22;20622;-82
2024/01/15 07:09:54;;;;;;;10.65;2.38;;;1.70;99.90;;;;;;6298556;22;20007;-81
2024/01/15 07:12:19;;;;;;;14.00;2.05;;;1.70;99.90;;;;;;6298926;22;20075;-82
2024/01/15 07:14:45;;;;;;;12.10;1.83;;;1.90;99.90;;;;;;6298796;22;20015;-82
2024/01/15 07:17:11;;;;;;;9.88;1.63;;;1.90;99.90;;;;;;6300172;22;20359;-82
2024/01/15 07:19:36;;;;;;;9.87;1.77;;;2.10;99.90;;;;;;6302035;22;20015;-82
2024/01/15 07:22:02;;;;;;;10.43;2.00;;;2.00;99.90;;;;;;6299509;22;20535;-82
2024/01/15 07:24:28;;;;;;;8.77;2.15;;;1.70;99.90;;;;;;6301056;22;20053;-82
2024/01/15 07:26:53;;;;;;;8.50;1.57;;;1.80;99.90;;;;;;6300764;22;20007;-80
2024/01/15 07:29:19;;;;;;;7.55;1.30;;;1.60;99.90;;;;;;6301501;22;20023;-81
2024/01/15 07:31:50;;;;;;;7.82;1.15;;;1.70;99.90;;;;;;6300843;22;20023;-81
2024/01/15 07:34:16;;;;;;;9.02;2.15;;;1.60;99.90;;;;;;6301004;22;20018;-80
2024/01/15 07:36:43;;;;;;;8.32;1.08;;;1.60;99.90;;;;;;6300441;22;20022;-81
2024/01/15 07:39:09;;;;;;;11.20;2.75;;;1.50;99.90;;;;;;6301240;22;20712;-81
2024/01/15 07:41:34;;;;;;;9.75;1.73;;;1.50;99.90;;;;;;6299045;22;20034;-82
2024/01/15 07:44:00;;;;;;;7.50;1.30;;;1.80;99.90;;;;;;6272405;22;20015;-81
2024/01/15 07:46:26;;;;;;;8.30;1.37;;;1.60;99.90;;;;;;6300836;22;20019;-81
2024/01/15 07:48:56;;;;;;;11.30;1.97;;;1.80;99.90;;;;;;6301692;22;20328;-80
2024/01/15 07:51:22;;;;;;;10.60;1.77;;;1.70;99.90;;;;;;6300991;22;20010;-81
2024/01/15 07:53:48;;;;;;;7.35;1.60;;;1.70;99.90;;;;;;6300852;22;20064;-80
2024/01/15 07:56:13;;;;;;;8.90;1.50;;;2.00;99.90;;;;;;6300518;22;20015;-80
2024/01/15 07:58:39;;;;;;;9.15;1.40;;;2.00;99.90;;;;;;6301808;22;20553;-81
2024/01/15 08:01:06;;;;;;;16.45;2.00;;;1.90;99.90;;;;;;6301188;22;20472;-81
2024/01/15 08:03:31;;;;;;;10.68;1.88;;;1.80;99.90;;;;;;6301714;22;20380;-81
2024/01/15 08:05:59;;;;;;;12.90;1.90;;;1.40;99.90;;;;;;6300950;22;20056;-81
2024/01/15 08:08:26;;;;;;;7.35;1.67;;;1.80;99.90;;;;;;6301647;22;20233;-81
2024/01/15 08:10:52;;;;;;;11.73;1.55;;;1.80;99.90;;;;;;6301771;22;20042;-83
2024/01/15 08:13:18;;;;;;;10.45;1.60;;;1.80;99.90;;;;;;6273384;22;20018;-82
2024/01/15 08:15:44;;;;;;;9.63;1.33;;;1.40;99.90;;;;;;6300249;22;20015;-83
2024/01/15 08:18:10;;;;;;;9.35;1.73;;;1.70;99.90;;;;;;6301191;22;20016;-83
2024/01/15 08:20:35;;;;;;;9.50;1.33;;;1.70;99.90;;;;;;6300098;22;20105;-82
2024/01/15 08:23:01;;;;;;;7.40;1.40;;;1.70;99.90;;;;;;6273363;22;20012;-83
2024/01/15 08:25:26;;;;;;;9.77;1.83;;;1.70;99.90;;;;;;6298966;22;20019;-84
2024/01/15 08:27:52;;;;;;;6.35;1.20;;;1.30;99.90;;;;;;6298892;22;20023;-83
2024/01/15 08:30:18;;;;;;;8.38;1.40;;;1.70;99.90;;;;;;6299311;22;20085;-83
2024/01/15 08:32:44;;;;;;;10.73;1.98;;;1.70;99.90;;;;;;6302588;22;20022;-83
2024/01/15 08:35:11;;;;;;;8.02;1.17;;;1.70;99.90;;;;;;6300130;22;20023;-83
2024/01/15 08:37:38;;;;;;;4.95;1.08;;;1.50;99.90;;;;;;6302162;22;20015;-84
2024/01/15 08:40:04;;;;;;;8.68;1.55;;;1.80;99.90;;;;;;6298864;22;20016;-83
2024/01/15 08:42:29;;;;;;;6.82;1.10;;;1.70;99.90;;;;;;6299924;22;20398;-83
2024/01/15 08:44:55;;;;;;;3.38;0.80;;;1.80;99.90;;;;;;6300910;22;20367;-83
2024/01/15 08:47:21;;;;;;;5.60;0.77;;;2.00;99.90;;;;;;6299246;22;20018;-83
2024/01/15 08:49:46;;;;;;;9.50;1.15;;;1.90;99.90;;;;;;6300206;22;20246;-83
2024/01/15 08:52:12;;;;;;;6.65;1.08;;;2.20;99.90;;;;;;6300004;22;20459;-83
2024/01/15 08:54:37;;;;;;;10.27;1.38;;;2.20;99.90;;;;;;6299839;22;20018;-83
2024/01/15 08:57:03;;;;;;;5.33;0.90;;;2.20;99.90;;;;;;6300736;22;20011;-83
2024/01/15 08:59:29;;;;;;;5.18;0.82;;;2.20;99.90;;;;;;6301637;22;20011;-83
2024/01/15 09:01:57;;;;;;;6.10;1.20;;;2.20;99.90;;;;;;6300442;22;20023;-83
2024/01/15 09:04:23;;;;;;;8.02;1.10;;;2.30;99.90;;;;;;6299746;22;20262;-83
2024/01/15 09:06:49;;;;;;;5.25;1.13;;;2.20;99.90;;;;;;6298028;22;20015;-82
2024/01/15 09:09:14;;;;;;;5.10;1.00;;;2.30;99.90;;;;;;6299643;22;20003;-82
2024/01/15 09:11:42;;;;;;;4.47;0.82;;;2.30;99.90;;;;;;6300726;22;20078;-82
2024/01/15 09:14:09;;;;;;;6.20;1.02;;;2.30;99.90;;;;;;6299980;22;20019;-82
2024/01/15 09:16:35;;;;;;;5.07;1.92;;;2.30;99.90;;;;;;6302831;22;20007;-82
2024/01/15 09:19:00;;;;;;;7.80;1.20;;;2.30;99.90;;;;;;6300300;22;20469;-81
2024/01/15 09:21:26;;;;;;;10.35;1.52;;;2.20;99.90;;;;;;6300200;22;20030;-80
2024/01/15 09:23:51;;;;;;;5.40;0.90;;;2.20;99.90;;;;;;6299847;22;20019;-81
2024/01/15 09:26:17;;;;;;;6.90;0.80;;;2.20;99.90;;;;;;6300591;22;20238;-81
2024/01/15 09:28:43;;;;;;;4.85;1.08;;;2.40;99.90;;;;;;6300232;22;20565;-81
2024/01/15 09:31:09;;;;;;;3.20;0.60;;;2.20;99.90;;;;;;6275516;22;20015;-82
2024/01/15 09:33:34;;;;;;;6.53;1.00;;;2.20;99.90;;;;;;6301482;22;20015;-82
2024/01/15 09:36:04;;;;;;;4.50;1.07;;;2.10;99.90;;;;;;6301789;22;20015;-82
2024/01/15 09:38:31;;;;;;;6.25;0.85;;;2.30;99.90;;;;;;6302522;22;20015;-81
2024/01/15 09:40:57;;;;;;;12.70;1.45;;;2.10;99.90;;;;;;6306131;22;20381;-81
2024/01/15 09:43:23;;;;;;;11.25;1.40;;;2.20;99.90;;;;;;6331291;22;20014;-81
2024/01/15 09:45:49;;;;;;;13.13;1.48;;;2.30;99.90;;;;;;6331403;22;20007;-82
2024/01/15 09:48:16;;;;;;;;;;;2.30;99.90;;;;;;6330864;22;20426;-81
2024/01/15 09:50:42;;;;;;;9.57;1.23;;;2.20;99.90;;;;;;6334162;22;19989;-80
2024/01/15 09:53:09;;;;;;;7.35;1.40;;;2.20;99.90;;;;;;6330837;22;20326;-80
2024/01/15 09:55:37;;;;;;;7.22;1.33;;;2.30;99.90;;;;;;6305490;22;20019;-81
2024/01/15 09:58:03;;;;;;;6.03;1.42;;;2.50;99.90;;;;;;6325377;22;20011;-82
2024/01/15 10:00:33;;;;;;;9.32;1.30;;;2.40;99.90;;;;;;6279319;22;20022;-80
2024/01/15 10:03:01;;;;;;;9.60;1.30;;;2.30;99.90;;;;;;6306582;22;20021;-79
2024/01/15 10:05:27;;;;;;;11.70;1.60;;;2.20;99.90;;;;;;6303505;22;20026;-79
2024/01/15 10:07:55;;;;;;;9.55;1.60;;;2.30;99.90;;;;;;6328784;22;20435;-83
2024/01/15 10:10:21;;;;;;;8.65;1.23;;;2.20;99.90;;;;;;6302412;22;20439;-81
2024/01/15 10:12:48;;;;;;;10.63;1.80;;;2.40;99.90;;;;;;6304387;22;20011;-80
2024/01/15 10:15:13;;;;;;;9.32;1.50;;;2.60;99.90;;;;;;6303653;22;20168;-80
2024/01/15 10:17:40;;;;;;;8.85;1.40;;;2.50;99.90;;;;;;6303758;22;20474;-81
2024/01/15 10:20:10;;;;;;;12.02;1.52;;;2.70;99.90;;;;;;6303978;22;20011;-80
2024/01/15 10:22:38;;;;;;;7.43;1.50;;;2.30;99.90;;;;;;6306028;22;20461;-81
2024/01/15 10:25:05;;;;;;;8.88;1.48;;;2.60;99.90;;;;;;6306483;22;20015;-82
2024/01/15 10:27:30;;;;;;;;;;;2.50;99.90;;;;;;6302606;22;20018;-81
2024/01/15 10:30:00;;;;;;;9.18;1.40;;;2.50;99.90;;;;;;6333669;22;19950;-81
2024/01/15 10:32:26;;;;;;;5.05;1.20;;;2.50;99.90;;;;;;6331482;22;20011;-81
2024/01/15 10:34:52;;;;;;;7.47;1.25;;;2.50;99.90;;;;;;6304222;22;20090;-81
2024/01/15 10:37:18;;;;;;;;;;;2.40;99.90;;;;;;6305265;22;20003;-81
2024/01/15 10:39:45;;;;;;;8.70;1.30;;;2.70;99.90;;;;;;6304569;22;20003;-80
2024/01/15 10:42:11;;;;;;;13.05;1.75;;;2.90;99.90;;;;;;6304702;22;20516;-80
2024/01/15 10:44:37;;;;;;;8.87;1.40;;;2.80;99.90;;;;;;6305256;22;20042;-81
2024/01/15 10:47:03;;;;;;;13.02;1.48;;;3.00;99.90;;;;;;6305702;22;20299;-80
2024/01/15 10:49:30;;;;;;;7.47;1.08;;;2.90;99.90;;;;;;6330433;22;20405;-80
2024/01/15 10:51:56;;;;;;;7.55;1.13;;;2.90;99.90;;;;;;6279096;22;20007;-81
2024/01/15 10:54:23;;;;;;;;;;;3.00;99.90;;;;;;6303339;22;20015;-80
2024/01/15 10:56:59;;;;;;;5.60;1.00;;;3.00;99.90;;;;;;6330592;22;19918;-80
2024/01/15 10:59:25;;;;;;;7.67;1.53;;;2.80;99.90;;;;;;6300449;22;20011;-81
2024/01/15 11:01:54;;;;;;;6.22;2.90;;;2.90;99.90;;;;;;6274922;22;20246;-82
2024/01/15 11:04:22;;;;;;;5.82;2.75;;;3.00;99.90;;;;;;6274765;22;20046;-82
2024/01/15 11:06:55;;;;;;;8.27;3.35;;;2.70;99.90;;;;;;6250148;22;20011;-82
2024/01/15 11:09:21;;;;;;;9.48;3.28;;;2.90;99.90;;;;;;6248961;22;20324;-80
2024/01/15 11:11:49;;;;;;;8.20;2.45;;;2.70;99.90;;;;;;6273665;22;20054;-81
2024/01/15 11:14:43;;;;;;;7.50;2.20;;;2.90;99.90;;;;;;6274682;22;20015;-81
2024/01/15 11:17:09;;;;;;;6.40;1.30;;;2.80;99.90;;;;;;6248154;22;20050;-81
2024/01/15 11:19:46;;;;;;;5.57;1.00;;;2.70;99.90;;;;;;6274015;22;20502;-80
2024/01/15 11:22:33;;;;;;;6.10;1.25;;;2.30;99.90;;;;;;6273834;22;20011;-81
2024/01/15 11:25:15;;;;;;;2.50;0.57;;;2.20;99.90;;;;;;6275491;22;20439;-81
2024/01/15 11:27:51;;;;;;;4.03;0.50;;;2.30;99.90;;;;;;6249041;22;20017;-81
2024/01/15 11:30:16;;;;;;;2.55;0.30;;;2.70;99.90;;;;;;6249406;22;20451;-81
2024/01/15 11:32:42;;;;;;;2.90;0.38;;;2.90;99.90;;;;;;6274335;22;20019;-82
2024/01/15 11:35:09;;;;;;;2.78;0.30;;;2.70;99.90;;;;;;6249607;22;20094;-82
2024/01/15 11:37:50;;;;;;;2.92;0.40;;;2.60;99.90;;;;;;6249188;22;20026;-81
2024/01/15 11:40:20;;;;;;;0.98;0.30;;;2.80;99.90;;;;;;6274487;22;20680;-81
2024/01/15 11:42:47;;;;;;;3.40;0.50;;;2.80;99.90;;;;;;6274058;22;20787;-81
2024/01/15 11:45:17;;;;;;;5.85;0.60;;;2.80;99.90;;;;;;6271244;22;20042;-82
2024/01/15 11:47:57;;;;;;;3.45;0.70;;;2.80;99.90;;;;;;6273675;22;20015;-81
2024/01/15 11:50:26;;;;;;;3.65;0.75;;;2.50;99.90;;;;;;6270162;22;20017;-81
2024/01/15 11:53:00;;;;;;;4.18;0.50;;;2.60;99.90;;;;;;6268565;22;20023;-81
2024/01/15 11:55:38;;;;;;;2.38;0.32;;;2.30;99.90;;;;;;6271714;22;20035;-81
2024/01/15 11:58:09;;;;;;;3.40;0.40;;;1.70;99.90;;;;;;6273636;22;20015;-82
2024/01/15 12:00:43;;;;;;;3.17;0.60;;;1.40;99.90;;;;;;6273050;22;20011;-81
2024/01/15 12:03:09;;;;;;;1.88;0.60;;;1.30;99.90;;;;;;6246455;22;20015;-81
2024/01/15 12:05:37;;;;;;;1.88;0.40;;;2.10;99.90;;;;;;6247251;22;20089;-81
2024/01/15 12:08:03;;;;;;;3.90;0.57;;;1.20;99.90;;;;;;6271500;22;20037;-81
2024/01/15 12:10:29;;;;;;;3.70;0.68;;;1.70;99.90;;;;;;6272969;22;20432;-81
2024/01/15 12:12:59;;;;;;;3.40;0.70;;;2.10;99.90;;;;;;6270984;22;20023;-81
2024/01/15 12:15:26;;;;;;;5.65;0.95;;;1.80;99.90;;;;;;6246904;22;20090;-82
2024/01/15 12:17:54;;;;;;;5.00;1.00;;;1.60;99.90;;;;;;6272251;22;20015;-81
2024/01/15 12:20:19;;;;;;;5.35;0.93;;;1.50;99.90;;;;;;6272059;22;20470;-82
2024/01/15 12:22:45;;;;;;;5.95;1.42;;;2.30;99.90;;;;;;6246148;22;20233;-82
2024/01/15 12:25:11;;;;;;;7.80;1.58;;;1.70;99.90;;;;;;6272643;22;20366;-81
2024/01/15 12:27:37;;;;;;;8.55;0.95;;;2.60;99.90;;;;;;6271372;22;20336;-81
2024/01/15 12:30:03;;;;;;;8.60;1.10;;;2.40;99.90;;;;;;6273049;22;20090;-82
2024/01/15 12:32:29;;;;;;;5.03;0.90;;;1.80;99.90;;;;;;6273091;22;20080;-82
2024/01/15 12:34:55;;;;;;;6.47;1.30;;;2.50;99.90;;;;;;6272420;22;20060;-82
2024/01/15 12:37:21;;;;;;;7.95;0.95;;;2.70;99.90;;;;;;6274024;22;20438;-81
2024/01/15 12:39:48;;;;;;;8.32;1.20;;;2.40;99.90;;;;;;6271786;22;20019;-81
2024/01/15 12:42:17;;;;;;;6.10;1.17;;;2.60;99.90;;;;;;6248172;22;20023;-81
2024/01/15 12:44:44;;;;;;;7.60;1.80;;;2.80;99.90;;;;;;6273806;22;20011;-82
2024/01/15 12:47:10;;;;;;;7.45;1.40;;;2.70;99.90;;;;;;6245060;22;20019;-82
2024/01/15 12:49:37;;;;;;;8.30;1.15;;;3.00;99.90;;;;;;6270416;22;20015;-82
2024/01/15 12:52:03;;;;;;;9.23;1.38;;;3.20;99.90;;;;;;6247880;22;20098;-82
2024/01/15 12:54:29;;;;;;;10.10;1.10;;;3.20;99.90;;;;;;6246863;22;20042;-82